sensor_id;sensor_type;location;lat;lon;timestamp;P1;durP1;ratioP1;P2;durP2;ratioP2
4051;SDS011;2040;50.924;11.604;2023-02-15T00:01:20;130.93;;;12.53;;
4051;SDS011;2040;50.924;11.604;2023-02-15T00:03:47;160.87;;;14.43;;
4051;SDS011;2040;50.924;11.604;2023-02-15T00:06:13;154.23;;;17.50;;
4051;SDS011;2040;50.924;11.604;2023-02-15T00:08:39;210.43;;;17.73;;
4051;SDS011;2040;50.924;11.604;2023-02-15T00:11:06;370.33;;;25.97;;
4051;SDS011;2040;50.924;11.604;2023-02-15T00:13:36;375.47;;;22.17;;
4051;SDS011;2040;50.924;11.604;2023-02-15T00:16:08;366.27;;;20.63;;
4051;SDS011;2040;50.924;11.604;2023-02-15T00:18:35;265.50;;;18.33;;
4051;SDS011;2040;50.924;11.604;2023-02-15T00:21:05;291.00;;;19.50;;
4051;SDS011;2040;50.924;11.604;2023-02-15T00:23:31;188.47;;;16.87;;
4051;SDS011;2040;50.924;11.604;2023-02-15T00:26:07;491.47;;;33.80;;
4051;SDS011;2040;50.924;11.604;2023-02-15T00:28:35;592.20;;;38.07;;
4051;SDS011;2040;50.924;11.604;2023-02-15T00:31:10;391.00;;;25.13;;
4051;SDS011;2040;50.924;11.604;2023-02-15T00:33:37;350.83;;;16.90;;
4051;SDS011;2040;50.924;11.604;2023-02-15T00:36:03;289.20;;;22.60;;
4051;SDS011;2040;50.924;11.604;2023-02-15T00:38:30;210.93;;;17.90;;
4051;SDS011;2040;50.924;11.604;2023-02-15T00:40:57;134.03;;;13.17;;
4051;SDS011;2040;50.924;11.604;2023-02-15T00:43:25;198.83;;;11.37;;
4051;SDS011;2040;50.924;11.604;2023-02-15T00:45:51;375.70;;;20.60;;
4051;SDS011;2040;50.924;11.604;2023-02-15T00:48:17;233.97;;;14.67;;
4051;SDS011;2040;50.924;11.604;2023-02-15T00:50:50;347.67;;;20.50;;
4051;SDS011;2040;50.924;11.604;2023-02-15T00:53:18;234.67;;;13.67;;
4051;SDS011;2040;50.924;11.604;2023-02-15T00:55:43;222.20;;;14.33;;
4051;SDS011;2040;50.924;11.604;2023-02-15T00:58:09;329.20;;;24.10;;
4051;SDS011;2040;50.924;11.604;2023-02-15T01:00:35;274.67;;;15.93;;
4051;SDS011;2040;50.924;11.604;2023-02-15T01:03:02;287.17;;;21.43;;
4051;SDS011;2040;50.924;11.604;2023-02-15T01:05:28;293.63;;;18.63;;
4051;SDS011;2040;50.924;11.604;2023-02-15T01:07:57;281.00;;;17.30;;
4051;SDS011;2040;50.924;11.604;2023-02-15T01:10:23;349.50;;;22.53;;
4051;SDS011;2040;50.924;11.604;2023-02-15T01:12:52;251.10;;;16.63;;
4051;SDS011;2040;50.924;11.604;2023-02-15T01:15:18;246.83;;;18.40;;
4051;SDS011;2040;50.924;11.604;2023-02-15T01:17:44;462.13;;;28.40;;
4051;SDS011;2040;50.924;11.604;2023-02-15T01:20:16;235.23;;;21.23;;
4051;SDS011;2040;50.924;11.604;2023-02-15T01:22:42;109.57;;;9.57;;
4051;SDS011;2040;50.924;11.604;2023-02-15T01:25:07;290.13;;;16.90;;
4051;SDS011;2040;50.924;11.604;2023-02-15T01:27:33;371.20;;;21.07;;
4051;SDS011;2040;50.924;11.604;2023-02-15T01:29:59;221.67;;;12.40;;
4051;SDS011;2040;50.924;11.604;2023-02-15T01:32:24;230.90;;;19.73;;
4051;SDS011;2040;50.924;11.604;2023-02-15T01:34:51;142.43;;;10.70;;
4051;SDS011;2040;50.924;11.604;2023-02-15T01:37:17;126.70;;;9.30;;
4051;SDS011;2040;50.924;11.604;2023-02-15T01:39:42;149.97;;;9.93;;
4051;SDS011;2040;50.924;11.604;2023-02-15T01:42:11;297.33;;;19.97;;
4051;SDS011;2040;50.924;11.604;2023-02-15T01:44:54;266.00;;;17.67;;
4051;SDS011;2040;50.924;11.604;2023-02-15T01:47:44;120.43;;;9.10;;
4051;SDS011;2040;50.924;11.604;2023-02-15T01:50:21;260.10;;;20.80;;
4051;SDS011;2040;50.924;11.604;2023-02-15T01:55:23;185.77;;;13.43;;
4051;SDS011;2040;50.924;11.604;2023-02-15T01:57:51;251.03;;;15.97;;
4051;SDS011;2040;50.924;11.604;2023-02-15T02:00:17;269.60;;;14.07;;
4051;SDS011;2040;50.924;11.604;2023-02-15T02:02:44;226.63;;;13.37;;
4051;SDS011;2040;50.924;11.604;2023-02-15T02:05:12;271.90;;;16.03;;
4051;SDS011;2040;50.924;11.604;2023-02-15T02:07:39;182.60;;;13.77;;
4051;SDS011;2040;50.924;11.604;2023-02-15T02:10:10;184.87;;;11.57;;
4051;SDS011;2040;50.924;11.604;2023-02-15T02:12:40;177.10;;;11.27;;
4051;SDS011;2040;50.924;11.604;2023-02-15T02:15:08;104.37;;;10.37;;
4051;SDS011;2040;50.924;11.604;2023-02-15T02:17:48;175.83;;;10.53;;
4051;SDS011;2040;50.924;11.604;2023-02-15T02:20:27;192.83;;;15.33;;
4051;SDS011;2040;50.924;11.604;2023-02-15T02:31:51;245.10;;;13.43;;
4051;SDS011;2040;50.924;11.604;2023-02-15T02:37:06;321.30;;;21.63;;
4051;SDS011;2040;50.924;11.604;2023-02-15T02:39:49;317.43;;;18.10;;
4051;SDS011;2040;50.924;11.604;2023-02-15T02:42:43;565.50;;;38.60;;
4051;SDS011;2040;50.924;11.604;2023-02-15T02:45:23;248.57;;;16.60;;
4051;SDS011;2040;50.924;11.604;2023-02-15T02:47:55;158.13;;;11.27;;
4051;SDS011;2040;50.924;11.604;2023-02-15T02:50:27;226.63;;;14.93;;
4051;SDS011;2040;50.924;11.604;2023-02-15T02:52:55;221.20;;;16.70;;
4051;SDS011;2040;50.924;11.604;2023-02-15T02:55:30;451.27;;;28.53;;
4051;SDS011;2040;50.924;11.604;2023-02-15T03:00:50;56.40;;;8.00;;
4051;SDS011;2040;50.924;11.604;2023-02-15T03:06:02;177.47;;;13.63;;
4051;SDS011;2040;50.924;11.604;2023-02-15T03:08:44;152.17;;;12.97;;
4051;SDS011;2040;50.924;11.604;2023-02-15T03:11:13;266.93;;;16.30;;
4051;SDS011;2040;50.924;11.604;2023-02-15T03:13:39;193.50;;;13.50;;
4051;SDS011;2040;50.924;11.604;2023-02-15T03:16:05;234.60;;;15.83;;
4051;SDS011;2040;50.924;11.604;2023-02-15T03:18:53;232.10;;;13.67;;
4051;SDS011;2040;50.924;11.604;2023-02-15T03:21:26;109.90;;;11.60;;
4051;SDS011;2040;50.924;11.604;2023-02-15T03:24:09;18.47;;;5.00;;
4051;SDS011;2040;50.924;11.604;2023-02-15T03:26:38;42.47;;;7.10;;
4051;SDS011;2040;50.924;11.604;2023-02-15T03:29:04;123.53;;;8.73;;
4051;SDS011;2040;50.924;11.604;2023-02-15T03:31:32;96.03;;;7.40;;
4051;SDS011;2040;50.924;11.604;2023-02-15T03:34:03;82.97;;;7.30;;
4051;SDS011;2040;50.924;11.604;2023-02-15T03:39:17;8.17;;;4.17;;
4051;SDS011;2040;50.924;11.604;2023-02-15T03:41:48;5.43;;;3.93;;
4051;SDS011;2040;50.924;11.604;2023-02-15T03:47:02;44.70;;;5.50;;
4051;SDS011;2040;50.924;11.604;2023-02-15T03:52:01;74.73;;;8.10;;
4051;SDS011;2040;50.924;11.604;2023-02-15T03:54:30;52.80;;;6.80;;
4051;SDS011;2040;50.924;11.604;2023-02-15T03:57:18;43.90;;;4.77;;
4051;SDS011;2040;50.924;11.604;2023-02-15T04:03:08;7.43;;;3.60;;
4051;SDS011;2040;50.924;11.604;2023-02-15T04:05:34;15.43;;;3.43;;
4051;SDS011;2040;50.924;11.604;2023-02-15T04:08:00;17.53;;;4.13;;
4051;SDS011;2040;50.924;11.604;2023-02-15T04:10:26;19.23;;;5.10;;
4051;SDS011;2040;50.924;11.604;2023-02-15T04:13:10;23.07;;;5.70;;
4051;SDS011;2040;50.924;11.604;2023-02-15T04:15:36;13.60;;;4.80;;
4051;SDS011;2040;50.924;11.604;2023-02-15T04:18:20;77.90;;;6.00;;
4051;SDS011;2040;50.924;11.604;2023-02-15T04:20:46;28.77;;;4.20;;
4051;SDS011;2040;50.924;11.604;2023-02-15T04:23:32;59.80;;;5.13;;
4051;SDS011;2040;50.924;11.604;2023-02-15T04:26:16;27.67;;;5.20;;
4051;SDS011;2040;50.924;11.604;2023-02-15T04:28:42;49.10;;;6.30;;
4051;SDS011;2040;50.924;11.604;2023-02-15T04:31:07;22.50;;;4.83;;
4051;SDS011;2040;50.924;11.604;2023-02-15T04:33:33;42.47;;;6.63;;
4051;SDS011;2040;50.924;11.604;2023-02-15T04:36:00;68.30;;;6.73;;
4051;SDS011;2040;50.924;11.604;2023-02-15T04:38:26;149.80;;;10.07;;
4051;SDS011;2040;50.924;11.604;2023-02-15T04:40:52;174.40;;;13.20;;
4051;SDS011;2040;50.924;11.604;2023-02-15T04:43:18;113.37;;;8.27;;
4051;SDS011;2040;50.924;11.604;2023-02-15T04:45:50;104.07;;;8.73;;
4051;SDS011;2040;50.924;11.604;2023-02-15T04:48:16;188.77;;;12.70;;
4051;SDS011;2040;50.924;11.604;2023-02-15T04:50:43;444.00;;;24.97;;
4051;SDS011;2040;50.924;11.604;2023-02-15T04:53:09;418.20;;;22.73;;
4051;SDS011;2040;50.924;11.604;2023-02-15T04:55:35;341.90;;;20.37;;
4051;SDS011;2040;50.924;11.604;2023-02-15T04:58:00;253.23;;;14.20;;
4051;SDS011;2040;50.924;11.604;2023-02-15T05:00:26;126.17;;;12.63;;
4051;SDS011;2040;50.924;11.604;2023-02-15T05:02:52;194.37;;;10.73;;
4051;SDS011;2040;50.924;11.604;2023-02-15T05:05:18;121.67;;;8.10;;
4051;SDS011;2040;50.924;11.604;2023-02-15T05:07:44;86.40;;;5.87;;
4051;SDS011;2040;50.924;11.604;2023-02-15T05:10:09;185.40;;;9.90;;
4051;SDS011;2040;50.924;11.604;2023-02-15T05:12:35;71.70;;;5.80;;
4051;SDS011;2040;50.924;11.604;2023-02-15T05:15:00;52.63;;;6.03;;
4051;SDS011;2040;50.924;11.604;2023-02-15T05:17:26;58.70;;;6.00;;
4051;SDS011;2040;50.924;11.604;2023-02-15T05:19:52;128.30;;;8.40;;
4051;SDS011;2040;50.924;11.604;2023-02-15T05:22:17;34.10;;;6.80;;
4051;SDS011;2040;50.924;11.604;2023-02-15T05:24:43;48.77;;;5.93;;
4051;SDS011;2040;50.924;11.604;2023-02-15T05:27:27;195.83;;;11.30;;
4051;SDS011;2040;50.924;11.604;2023-02-15T05:30:11;321.90;;;16.30;;
4051;SDS011;2040;50.924;11.604;2023-02-15T05:32:38;102.90;;;8.20;;
4051;SDS011;2040;50.924;11.604;2023-02-15T05:35:04;327.47;;;19.83;;
4051;SDS011;2040;50.924;11.604;2023-02-15T05:37:30;145.67;;;13.17;;
4051;SDS011;2040;50.924;11.604;2023-02-15T05:39:56;212.70;;;11.80;;
4051;SDS011;2040;50.924;11.604;2023-02-15T05:42:21;161.57;;;11.30;;
4051;SDS011;2040;50.924;11.604;2023-02-15T05:44:47;122.27;;;8.90;;
4051;SDS011;2040;50.924;11.604;2023-02-15T05:47:12;199.13;;;11.90;;
4051;SDS011;2040;50.924;11.604;2023-02-15T05:49:39;51.20;;;7.00;;
4051;SDS011;2040;50.924;11.604;2023-02-15T05:52:04;220.40;;;11.63;;
4051;SDS011;2040;50.924;11.604;2023-02-15T05:54:30;469.63;;;26.07;;
4051;SDS011;2040;50.924;11.604;2023-02-15T05:56:56;106.37;;;8.43;;
4051;SDS011;2040;50.924;11.604;2023-02-15T05:59:21;301.37;;;17.60;;
4051;SDS011;2040;50.924;11.604;2023-02-15T06:01:47;272.67;;;20.60;;
4051;SDS011;2040;50.924;11.604;2023-02-15T06:04:13;186.63;;;17.63;;
4051;SDS011;2040;50.924;11.604;2023-02-15T06:06:38;335.27;;;18.73;;
4051;SDS011;2040;50.924;11.604;2023-02-15T06:09:04;225.73;;;17.17;;
4051;SDS011;2040;50.924;11.604;2023-02-15T06:11:29;311.40;;;17.93;;
4051;SDS011;2040;50.924;11.604;2023-02-15T06:13:55;458.57;;;25.73;;
4051;SDS011;2040;50.924;11.604;2023-02-15T06:16:21;167.20;;;12.03;;
4051;SDS011;2040;50.924;11.604;2023-02-15T06:18:47;180.30;;;13.30;;
4051;SDS011;2040;50.924;11.604;2023-02-15T06:21:12;63.83;;;8.77;;
4051;SDS011;2040;50.924;11.604;2023-02-15T06:23:38;131.07;;;9.90;;
4051;SDS011;2040;50.924;11.604;2023-02-15T06:26:04;101.50;;;9.37;;
4051;SDS011;2040;50.924;11.604;2023-02-15T06:28:29;87.63;;;7.53;;
4051;SDS011;2040;50.924;11.604;2023-02-15T06:30:55;224.77;;;12.73;;
4051;SDS011;2040;50.924;11.604;2023-02-15T06:33:21;491.73;;;28.73;;
4051;SDS011;2040;50.924;11.604;2023-02-15T06:35:47;313.60;;;21.00;;
4051;SDS011;2040;50.924;11.604;2023-02-15T06:38:13;200.53;;;15.50;;
4051;SDS011;2040;50.924;11.604;2023-02-15T06:40:39;564.43;;;29.53;;
4051;SDS011;2040;50.924;11.604;2023-02-15T06:43:04;342.80;;;19.17;;
4051;SDS011;2040;50.924;11.604;2023-02-15T06:45:30;88.87;;;7.40;;
4051;SDS011;2040;50.924;11.604;2023-02-15T06:47:55;316.57;;;18.63;;
4051;SDS011;2040;50.924;11.604;2023-02-15T06:50:21;227.93;;;14.23;;
4051;SDS011;2040;50.924;11.604;2023-02-15T06:52:47;148.43;;;13.17;;
4051;SDS011;2040;50.924;11.604;2023-02-15T06:55:12;214.13;;;17.60;;
4051;SDS011;2040;50.924;11.604;2023-02-15T06:57:38;236.27;;;14.23;;
4051;SDS011;2040;50.924;11.604;2023-02-15T07:00:03;205.20;;;16.13;;
4051;SDS011;2040;50.924;11.604;2023-02-15T07:02:30;123.67;;;9.63;;
4051;SDS011;2040;50.924;11.604;2023-02-15T07:04:56;357.57;;;22.93;;
4051;SDS011;2040;50.924;11.604;2023-02-15T07:07:22;264.40;;;17.63;;
4051;SDS011;2040;50.924;11.604;2023-02-15T07:09:47;224.33;;;12.67;;
4051;SDS011;2040;50.924;11.604;2023-02-15T07:12:13;287.00;;;15.23;;
4051;SDS011;2040;50.924;11.604;2023-02-15T07:15:15;563.93;;;29.23;;
4051;SDS011;2040;50.924;11.604;2023-02-15T07:17:42;270.60;;;18.67;;
4051;SDS011;2040;50.924;11.604;2023-02-15T07:20:15;333.47;;;20.50;;
4051;SDS011;2040;50.924;11.604;2023-02-15T07:22:42;248.37;;;14.70;;
4051;SDS011;2040;50.924;11.604;2023-02-15T07:25:09;226.37;;;14.27;;
4051;SDS011;2040;50.924;11.604;2023-02-15T07:27:36;384.30;;;22.30;;
4051;SDS011;2040;50.924;11.604;2023-02-15T07:30:02;171.23;;;11.87;;
4051;SDS011;2040;50.924;11.604;2023-02-15T07:32:29;360.87;;;20.17;;
4051;SDS011;2040;50.924;11.604;2023-02-15T07:34:56;231.07;;;15.50;;
4051;SDS011;2040;50.924;11.604;2023-02-15T07:37:22;463.87;;;29.50;;
4051;SDS011;2040;50.924;11.604;2023-02-15T07:39:47;249.77;;;18.23;;
4051;SDS011;2040;50.924;11.604;2023-02-15T07:42:13;486.00;;;29.67;;
4051;SDS011;2040;50.924;11.604;2023-02-15T07:44:38;304.63;;;24.43;;
4051;SDS011;2040;50.924;11.604;2023-02-15T07:47:04;344.60;;;21.13;;
4051;SDS011;2040;50.924;11.604;2023-02-15T07:49:29;742.67;;;53.27;;
4051;SDS011;2040;50.924;11.604;2023-02-15T07:51:55;657.10;;;42.80;;
4051;SDS011;2040;50.924;11.604;2023-02-15T07:54:20;91.07;;;8.60;;
4051;SDS011;2040;50.924;11.604;2023-02-15T07:56:46;212.23;;;15.17;;
4051;SDS011;2040;50.924;11.604;2023-02-15T07:59:12;277.93;;;18.23;;
4051;SDS011;2040;50.924;11.604;2023-02-15T08:01:39;180.07;;;12.50;;
4051;SDS011;2040;50.924;11.604;2023-02-15T08:04:05;165.67;;;13.10;;
4051;SDS011;2040;50.924;11.604;2023-02-15T08:06:33;371.00;;;25.97;;
4051;SDS011;2040;50.924;11.604;2023-02-15T08:08:59;342.67;;;23.00;;
4051;SDS011;2040;50.924;11.604;2023-02-15T08:11:28;311.93;;;19.67;;
4051;SDS011;2040;50.924;11.604;2023-02-15T08:18:57;285.43;;;18.60;;
4051;SDS011;2040;50.924;11.604;2023-02-15T08:21:25;288.13;;;16.90;;
4051;SDS011;2040;50.924;11.604;2023-02-15T08:23:53;242.77;;;17.50;;
4051;SDS011;2040;50.924;11.604;2023-02-15T08:26:19;309.17;;;18.80;;
4051;SDS011;2040;50.924;11.604;2023-02-15T08:28:45;282.97;;;21.37;;
4051;SDS011;2040;50.924;11.604;2023-02-15T08:31:12;30.40;;;6.77;;
4051;SDS011;2040;50.924;11.604;2023-02-15T08:33:39;161.73;;;10.27;;
4051;SDS011;2040;50.924;11.604;2023-02-15T08:36:06;20.20;;;5.23;;
4051;SDS011;2040;50.924;11.604;2023-02-15T08:38:34;130.47;;;11.30;;
4051;SDS011;2040;50.924;11.604;2023-02-15T08:41:13;94.67;;;8.50;;
4051;SDS011;2040;50.924;11.604;2023-02-15T08:43:44;210.37;;;18.93;;
4051;SDS011;2040;50.924;11.604;2023-02-15T08:46:12;205.80;;;17.33;;
4051;SDS011;2040;50.924;11.604;2023-02-15T08:48:39;105.67;;;8.10;;
4051;SDS011;2040;50.924;11.604;2023-02-15T08:51:09;412.83;;;25.70;;
4051;SDS011;2040;50.924;11.604;2023-02-15T08:53:41;248.67;;;13.23;;
4051;SDS011;2040;50.924;11.604;2023-02-15T08:56:10;69.23;;;7.93;;
4051;SDS011;2040;50.924;11.604;2023-02-15T08:58:36;87.00;;;7.17;;
4051;SDS011;2040;50.924;11.604;2023-02-15T09:01:13;96.90;;;9.93;;
4051;SDS011;2040;50.924;11.604;2023-02-15T09:03:43;233.93;;;17.77;;
4051;SDS011;2040;50.924;11.604;2023-02-15T09:06:12;89.93;;;9.60;;
4051;SDS011;2040;50.924;11.604;2023-02-15T09:08:38;94.87;;;9.63;;
4051;SDS011;2040;50.924;11.604;2023-02-15T09:11:08;94.80;;;10.40;;
4051;SDS011;2040;50.924;11.604;2023-02-15T09:13:41;90.77;;;11.43;;
4051;SDS011;2040;50.924;11.604;2023-02-15T09:16:08;39.00;;;9.17;;
4051;SDS011;2040;50.924;11.604;2023-02-15T09:18:35;45.43;;;8.33;;
4051;SDS011;2040;50.924;11.604;2023-02-15T09:21:09;42.83;;;8.37;;
4051;SDS011;2040;50.924;11.604;2023-02-15T09:23:40;18.93;;;5.13;;
4051;SDS011;2040;50.924;11.604;2023-02-15T09:26:07;74.40;;;8.77;;
4051;SDS011;2040;50.924;11.604;2023-02-15T09:28:39;22.90;;;5.83;;
4051;SDS011;2040;50.924;11.604;2023-02-15T09:31:06;25.10;;;6.50;;
4051;SDS011;2040;50.924;11.604;2023-02-15T09:33:33;42.00;;;6.67;;
4051;SDS011;2040;50.924;11.604;2023-02-15T09:36:00;8.20;;;4.90;;
4051;SDS011;2040;50.924;11.604;2023-02-15T09:38:26;5.90;;;4.30;;
4051;SDS011;2040;50.924;11.604;2023-02-15T09:41:03;11.80;;;5.93;;
4051;SDS011;2040;50.924;11.604;2023-02-15T09:43:37;11.53;;;5.20;;
4051;SDS011;2040;50.924;11.604;2023-02-15T09:46:25;9.77;;;5.10;;
4051;SDS011;2040;50.924;11.604;2023-02-15T09:49:09;7.90;;;5.03;;
4051;SDS011;2040;50.924;11.604;2023-02-15T09:51:56;8.77;;;5.03;;
4051;SDS011;2040;50.924;11.604;2023-02-15T09:57:53;10.30;;;6.47;;
4051;SDS011;2040;50.924;11.604;2023-02-15T10:00:49;24.27;;;8.57;;
4051;SDS011;2040;50.924;11.604;2023-02-15T10:17:54;10.33;;;6.93;;
4051;SDS011;2040;50.924;11.604;2023-02-15T10:20:35;8.00;;;4.30;;
4051;SDS011;2040;50.924;11.604;2023-02-15T10:23:31;7.80;;;3.57;;
4051;SDS011;2040;50.924;11.604;2023-02-15T10:28:45;8.10;;;3.87;;
4051;SDS011;2040;50.924;11.604;2023-02-15T10:31:25;7.00;;;3.93;;
4051;SDS011;2040;50.924;11.604;2023-02-15T10:36:44;7.17;;;4.47;;
4051;SDS011;2040;50.924;11.604;2023-02-15T10:39:29;8.20;;;4.80;;
4051;SDS011;2040;50.924;11.604;2023-02-15T10:44:47;7.00;;;3.83;;
4051;SDS011;2040;50.924;11.604;2023-02-15T10:47:41;11.43;;;4.10;;
4051;SDS011;2040;50.924;11.604;2023-02-15T10:50:30;8.67;;;4.50;;
4051;SDS011;2040;50.924;11.604;2023-02-15T10:56:03;5.87;;;4.23;;
4051;SDS011;2040;50.924;11.604;2023-02-15T11:01:53;5.50;;;3.43;;
4051;SDS011;2040;50.924;11.604;2023-02-15T11:07:32;7.40;;;4.50;;
4051;SDS011;2040;50.924;11.604;2023-02-15T11:10:23;5.37;;;3.73;;
4051;SDS011;2040;50.924;11.604;2023-02-15T11:13:04;7.33;;;4.20;;
4051;SDS011;2040;50.924;11.604;2023-02-15T11:18:11;5.23;;;3.33;;
4051;SDS011;2040;50.924;11.604;2023-02-15T11:21:04;8.50;;;4.20;;
4051;SDS011;2040;50.924;11.604;2023-02-15T11:23:39;8.13;;;3.67;;
4051;SDS011;2040;50.924;11.604;2023-02-15T11:28:59;6.47;;;3.80;;
4051;SDS011;2040;50.924;11.604;2023-02-15T11:31:55;4.87;;;3.87;;
4051;SDS011;2040;50.924;11.604;2023-02-15T11:37:03;7.53;;;4.10;;
4051;SDS011;2040;50.924;11.604;2023-02-15T11:39:33;5.87;;;3.50;;
4051;SDS011;2040;50.924;11.604;2023-02-15T11:42:01;5.17;;;3.50;;
4051;SDS011;2040;50.924;11.604;2023-02-15T11:44:51;6.00;;;3.73;;
4051;SDS011;2040;50.924;11.604;2023-02-15T11:47:52;5.30;;;3.10;;
4051;SDS011;2040;50.924;11.604;2023-02-15T11:50:22;7.83;;;4.13;;
4051;SDS011;2040;50.924;11.604;2023-02-15T11:52:50;7.30;;;4.20;;
4051;SDS011;2040;50.924;11.604;2023-02-15T11:55:19;6.27;;;3.33;;
4051;SDS011;2040;50.924;11.604;2023-02-15T11:57:50;22.03;;;4.53;;
4051;SDS011;2040;50.924;11.604;2023-02-15T12:00:24;7.03;;;4.10;;
4051;SDS011;2040;50.924;11.604;2023-02-15T12:02:52;7.20;;;3.63;;
4051;SDS011;2040;50.924;11.604;2023-02-15T12:05:21;4.87;;;3.27;;
4051;SDS011;2040;50.924;11.604;2023-02-15T12:07:54;6.00;;;4.27;;
4051;SDS011;2040;50.924;11.604;2023-02-15T12:10:26;7.90;;;3.73;;
4051;SDS011;2040;50.924;11.604;2023-02-15T12:13:13;7.60;;;4.43;;
4051;SDS011;2040;50.924;11.604;2023-02-15T12:15:44;4.57;;;3.23;;
4051;SDS011;2040;50.924;11.604;2023-02-15T12:20:58;8.33;;;3.63;;
4051;SDS011;2040;50.924;11.604;2023-02-15T12:23:25;7.87;;;4.13;;
4051;SDS011;2040;50.924;11.604;2023-02-15T12:25:54;7.03;;;4.20;;
4051;SDS011;2040;50.924;11.604;2023-02-15T12:31:02;5.67;;;3.77;;
4051;SDS011;2040;50.924;11.604;2023-02-15T12:33:35;4.90;;;2.57;;
4051;SDS011;2040;50.924;11.604;2023-02-15T12:36:09;5.40;;;4.10;;
4051;SDS011;2040;50.924;11.604;2023-02-15T12:38:40;5.60;;;3.50;;
4051;SDS011;2040;50.924;11.604;2023-02-15T12:41:22;6.87;;;3.80;;
4051;SDS011;2040;50.924;11.604;2023-02-15T12:44:35;3.23;;;2.87;;
4051;SDS011;2040;50.924;11.604;2023-02-15T12:46:54;6.00;;;4.10;;
4051;SDS011;2040;50.924;11.604;2023-02-15T12:49:25;5.67;;;4.20;;
4051;SDS011;2040;50.924;11.604;2023-02-15T12:51:56;9.17;;;3.43;;
4051;SDS011;2040;50.924;11.604;2023-02-15T12:57:22;3.70;;;2.77;;
4051;SDS011;2040;50.924;11.604;2023-02-15T13:02:36;12.03;;;3.80;;
4051;SDS011;2040;50.924;11.604;2023-02-15T13:08:01;8.33;;;4.37;;
4051;SDS011;2040;50.924;11.604;2023-02-15T13:10:35;6.17;;;3.67;;
4051;SDS011;2040;50.924;11.604;2023-02-15T13:13:09;5.63;;;3.67;;
4051;SDS011;2040;50.924;11.604;2023-02-15T13:15:37;4.40;;;2.50;;
4051;SDS011;2040;50.924;11.604;2023-02-15T13:18:05;4.50;;;2.90;;
4051;SDS011;2040;50.924;11.604;2023-02-15T13:20:38;2.57;;;2.20;;
4051;SDS011;2040;50.924;11.604;2023-02-15T13:23:06;5.87;;;2.00;;
4051;SDS011;2040;50.924;11.604;2023-02-15T13:25:47;3.00;;;1.80;;
4051;SDS011;2040;50.924;11.604;2023-02-15T13:28:16;2.80;;;1.90;;
4051;SDS011;2040;50.924;11.604;2023-02-15T13:30:45;4.23;;;1.70;;
4051;SDS011;2040;50.924;11.604;2023-02-15T13:33:34;2.60;;;1.50;;
4051;SDS011;2040;50.924;11.604;2023-02-15T13:36:02;3.80;;;1.83;;
4051;SDS011;2040;50.924;11.604;2023-02-15T13:41:10;5.00;;;2.27;;
4051;SDS011;2040;50.924;11.604;2023-02-15T13:52:17;1.90;;;1.60;;
4051;SDS011;2040;50.924;11.604;2023-02-15T13:55:06;2.03;;;1.63;;
4051;SDS011;2040;50.924;11.604;2023-02-15T14:00:23;2.47;;;1.53;;
4051;SDS011;2040;50.924;11.604;2023-02-15T14:03:00;3.00;;;1.70;;
4051;SDS011;2040;50.924;11.604;2023-02-15T14:21:54;9.43;;;2.83;;
4051;SDS011;2040;50.924;11.604;2023-02-15T14:30:25;11.37;;;2.90;;
4051;SDS011;2040;50.924;11.604;2023-02-15T14:32:56;4.10;;;2.80;;
4051;SDS011;2040;50.924;11.604;2023-02-15T14:35:31;4.77;;;3.00;;
4051;SDS011;2040;50.924;11.604;2023-02-15T14:46:25;4.00;;;2.73;;
4051;SDS011;2040;50.924;11.604;2023-02-15T14:49:16;6.60;;;3.33;;
4051;SDS011;2040;50.924;11.604;2023-02-15T14:51:56;6.33;;;3.67;;
4051;SDS011;2040;50.924;11.604;2023-02-15T14:57:20;5.40;;;3.30;;
4051;SDS011;2040;50.924;11.604;2023-02-15T14:59:58;7.77;;;3.30;;
4051;SDS011;2040;50.924;11.604;2023-02-15T15:05:19;11.80;;;4.83;;
4051;SDS011;2040;50.924;11.604;2023-02-15T15:07:51;8.83;;;4.73;;
4051;SDS011;2040;50.924;11.604;2023-02-15T15:18:08;5.47;;;4.17;;
4051;SDS011;2040;50.924;11.604;2023-02-15T15:30:59;6.93;;;4.57;;
4051;SDS011;2040;50.924;11.604;2023-02-15T15:33:46;11.00;;;6.20;;
4051;SDS011;2040;50.924;11.604;2023-02-15T15:42:20;13.73;;;6.17;;
4051;SDS011;2040;50.924;11.604;2023-02-15T15:45:02;22.57;;;9.10;;
4051;SDS011;2040;50.924;11.604;2023-02-15T15:47:53;19.93;;;8.30;;
4051;SDS011;2040;50.924;11.604;2023-02-15T15:50:32;5.90;;;4.20;;
4051;SDS011;2040;50.924;11.604;2023-02-15T15:52:58;7.60;;;4.37;;
4051;SDS011;2040;50.924;11.604;2023-02-15T15:55:27;12.80;;;7.30;;
4051;SDS011;2040;50.924;11.604;2023-02-15T15:57:56;13.70;;;7.90;;
4051;SDS011;2040;50.924;11.604;2023-02-15T16:00:29;8.73;;;6.37;;
4051;SDS011;2040;50.924;11.604;2023-02-15T16:03:01;10.23;;;6.23;;
4051;SDS011;2040;50.924;11.604;2023-02-15T16:05:33;17.57;;;7.07;;
4051;SDS011;2040;50.924;11.604;2023-02-15T16:08:00;13.10;;;7.50;;
4051;SDS011;2040;50.924;11.604;2023-02-15T16:10:27;9.90;;;5.87;;
4051;SDS011;2040;50.924;11.604;2023-02-15T16:12:54;11.13;;;5.00;;
4051;SDS011;2040;50.924;11.604;2023-02-15T16:15:25;7.47;;;5.10;;
4051;SDS011;2040;50.924;11.604;2023-02-15T16:17:58;7.57;;;5.17;;
4051;SDS011;2040;50.924;11.604;2023-02-15T16:23:03;12.33;;;5.67;;
4051;SDS011;2040;50.924;11.604;2023-02-15T16:25:56;15.33;;;5.23;;
4051;SDS011;2040;50.924;11.604;2023-02-15T16:28:51;13.00;;;5.57;;
4051;SDS011;2040;50.924;11.604;2023-02-15T16:31:18;10.50;;;5.27;;
4051;SDS011;2040;50.924;11.604;2023-02-15T16:33:45;16.10;;;7.83;;
4051;SDS011;2040;50.924;11.604;2023-02-15T16:36:12;86.40;;;32.33;;
4051;SDS011;2040;50.924;11.604;2023-02-15T16:41:15;13.10;;;7.93;;
4051;SDS011;2040;50.924;11.604;2023-02-15T16:43:46;14.70;;;7.13;;
4051;SDS011;2040;50.924;11.604;2023-02-15T16:46:16;11.60;;;6.60;;
4051;SDS011;2040;50.924;11.604;2023-02-15T16:48:48;9.53;;;6.37;;
4051;SDS011;2040;50.924;11.604;2023-02-15T16:51:27;11.77;;;7.03;;
4051;SDS011;2040;50.924;11.604;2023-02-15T16:53:54;11.20;;;5.67;;
4051;SDS011;2040;50.924;11.604;2023-02-15T16:56:23;10.37;;;6.43;;
4051;SDS011;2040;50.924;11.604;2023-02-15T16:58:51;9.43;;;5.23;;
4051;SDS011;2040;50.924;11.604;2023-02-15T17:01:19;7.60;;;4.70;;
4051;SDS011;2040;50.924;11.604;2023-02-15T17:03:48;7.97;;;4.40;;
4051;SDS011;2040;50.924;11.604;2023-02-15T17:06:22;8.77;;;5.30;;
4051;SDS011;2040;50.924;11.604;2023-02-15T17:09:16;8.40;;;5.43;;
4051;SDS011;2040;50.924;11.604;2023-02-15T17:11:43;7.03;;;4.63;;
4051;SDS011;2040;50.924;11.604;2023-02-15T17:16:35;7.30;;;4.97;;
4051;SDS011;2040;50.924;11.604;2023-02-15T17:19:20;14.40;;;4.97;;
4051;SDS011;2040;50.924;11.604;2023-02-15T17:21:54;11.17;;;4.97;;
4051;SDS011;2040;50.924;11.604;2023-02-15T17:24:26;7.80;;;5.33;;
4051;SDS011;2040;50.924;11.604;2023-02-15T17:27:12;7.77;;;5.33;;
4051;SDS011;2040;50.924;11.604;2023-02-15T17:29:48;12.30;;;7.10;;
4051;SDS011;2040;50.924;11.604;2023-02-15T17:32:26;11.17;;;5.90;;
4051;SDS011;2040;50.924;11.604;2023-02-15T17:37:25;9.43;;;6.23;;
4051;SDS011;2040;50.924;11.604;2023-02-15T17:39:51;12.43;;;6.40;;
4051;SDS011;2040;50.924;11.604;2023-02-15T17:42:16;11.07;;;5.10;;
4051;SDS011;2040;50.924;11.604;2023-02-15T17:44:42;9.87;;;6.10;;
4051;SDS011;2040;50.924;11.604;2023-02-15T17:47:09;8.17;;;5.10;;
4051;SDS011;2040;50.924;11.604;2023-02-15T17:49:39;13.33;;;5.63;;
4051;SDS011;2040;50.924;11.604;2023-02-15T17:52:05;10.10;;;5.03;;
4051;SDS011;2040;50.924;11.604;2023-02-15T17:54:34;9.20;;;5.60;;
4051;SDS011;2040;50.924;11.604;2023-02-15T17:57:19;7.33;;;4.47;;
4051;SDS011;2040;50.924;11.604;2023-02-15T17:59:44;6.40;;;4.30;;
4051;SDS011;2040;50.924;11.604;2023-02-15T18:02:30;5.87;;;3.50;;